sensor_id;sensor_type;location;lat;lon;timestamp;temperature;humidity
48019;DHT22;33786;48.690;9.562;2022-08-21T00:00:21;13.70;99.90
48019;DHT22;33786;48.690;9.562;2022-08-21T00:02:49;13.70;99.90
48019;DHT22;33786;48.690;9.562;2022-08-21T00:05:17;13.60;99.90
48019;DHT22;33786;48.690;9.562;2022-08-21T00:07:43;13.60;99.90
48019;DHT22;33786;48.690;9.562;2022-08-21T00:10:10;13.60;99.90
48019;DHT22;33786;48.690;9.562;2022-08-21T00:12:37;13.50;99.90
48019;DHT22;33786;48.690;9.562;2022-08-21T00:15:05;13.40;99.90
48019;DHT22;33786;48.690;9.562;2022-08-21T00:17:34;13.40;99.90
48019;DHT22;33786;48.690;9.562;2022-08-21T00:20:01;13.40;99.90
48019;DHT22;33786;48.690;9.562;2022-08-21T00:22:27;13.40;99.90
48019;DHT22;33786;48.690;9.562;2022-08-21T00:24:54;13.30;99.90
48019;DHT22;33786;48.690;9.562;2022-08-21T00:27:21;13.30;99.90
48019;DHT22;33786;48.690;9.562;2022-08-21T00:29:48;13.30;99.90
48019;DHT22;33786;48.690;9.562;2022-08-21T00:32:19;13.20;99.90
48019;DHT22;33786;48.690;9.562;2022-08-21T00:34:46;13.20;99.90
48019;DHT22;33786;48.690;9.562;2022-08-21T00:37:12;13.20;99.90
48019;DHT22;33786;48.690;9.562;2022-08-21T00:39:39;13.10;99.90
48019;DHT22;33786;48.690;9.562;2022-08-21T00:42:06;13.10;99.90
48019;DHT22;33786;48.690;9.562;2022-08-21T00:44:33;13.10;99.90
48019;DHT22;33786;48.690;9.562;2022-08-21T00:46:59;13.10;99.90
48019;DHT22;33786;48.690;9.562;2022-08-21T00:49:26;13.00;99.90
48019;DHT22;33786;48.690;9.562;2022-08-21T00:51:54;13.00;99.90
48019;DHT22;33786;48.690;9.562;2022-08-21T00:54:22;13.00;99.90
48019;DHT22;33786;48.690;9.562;2022-08-21T00:56:53;12.90;99.90
48019;DHT22;33786;48.690;9.562;2022-08-21T00:59:21;12.90;99.90
48019;DHT22;33786;48.690;9.562;2022-08-21T01:01:48;12.90;99.90
48019;DHT22;33786;48.690;9.562;2022-08-21T01:04:16;12.80;99.90
48019;DHT22;33786;48.690;9.562;2022-08-21T01:06:43;12.80;99.90
48019;DHT22;33786;48.690;9.562;2022-08-21T01:09:10;12.80;99.90
48019;DHT22;33786;48.690;9.562;2022-08-21T01:11:37;12.80;99.90
48019;DHT22;33786;48.690;9.562;2022-08-21T01:14:04;12.70;99.90
48019;DHT22;33786;48.690;9.562;2022-08-21T01:16:30;12.70;99.90
48019;DHT22;33786;48.690;9.562;2022-08-21T01:18:57;12.60;99.90
48019;DHT22;33786;48.690;9.562;2022-08-21T01:21:25;12.60;99.90
48019;DHT22;33786;48.690;9.562;2022-08-21T01:23:54;12.60;99.90
48019;DHT22;33786;48.690;9.562;2022-08-21T01:26:23;12.50;99.90
48019;DHT22;33786;48.690;9.562;2022-08-21T01:29:00;12.60;99.90
48019;DHT22;33786;48.690;9.562;2022-08-21T01:31:29;12.60;99.90
48019;DHT22;33786;48.690;9.562;2022-08-21T01:33:58;12.60;99.90
48019;DHT22;33786;48.690;9.562;2022-08-21T01:36:25;12.60;99.90
48019;DHT22;33786;48.690;9.562;2022-08-21T01:38:52;12.60;99.90
48019;DHT22;33786;48.690;9.562;2022-08-21T01:41:18;12.60;99.90
48019;DHT22;33786;48.690;9.562;2022-08-21T01:43:45;12.60;99.90
48019;DHT22;33786;48.690;9.562;2022-08-21T01:46:12;12.60;99.90
48019;DHT22;33786;48.690;9.562;2022-08-21T01:48:40;12.50;99.90
48019;DHT22;33786;48.690;9.562;2022-08-21T01:51:07;12.50;99.90
48019;DHT22;33786;48.690;9.562;2022-08-21T01:53:34;12.40;99.90
48019;DHT22;33786;48.690;9.562;2022-08-21T01:56:04;12.40;99.90
48019;DHT22;33786;48.690;9.562;2022-08-21T01:58:37;12.30;99.90
48019;DHT22;33786;48.690;9.562;2022-08-21T02:01:04;12.30;99.90
48019;DHT22;33786;48.690;9.562;2022-08-21T02:03:31;12.20;99.90
48019;DHT22;33786;48.690;9.562;2022-08-21T02:06:02;12.20;99.90
48019;DHT22;33786;48.690;9.562;2022-08-21T02:08:29;12.30;99.90
48019;DHT22;33786;48.690;9.562;2022-08-21T02:10:56;12.20;99.90
48019;DHT22;33786;48.690;9.562;2022-08-21T02:13:23;12.20;99.90
48019;DHT22;33786;48.690;9.562;2022-08-21T02:15:49;12.10;99.90
48019;DHT22;33786;48.690;9.562;2022-08-21T02:18:16;12.20;99.90
48019;DHT22;33786;48.690;9.562;2022-08-21T02:20:44;12.10;99.90
48019;DHT22;33786;48.690;9.562;2022-08-21T02:23:11;12.10;99.90
48019;DHT22;33786;48.690;9.562;2022-08-21T02:25:39;12.10;99.90
48019;DHT22;33786;48.690;9.562;2022-08-21T02:28:07;12.10;99.90
48019;DHT22;33786;48.690;9.562;2022-08-21T02:30:36;12.20;99.90
48019;DHT22;33786;48.690;9.562;2022-08-21T02:33:04;12.20;99.90
48019;DHT22;33786;48.690;9.562;2022-08-21T02:35:31;12.10;99.90
48019;DHT22;33786;48.690;9.562;2022-08-21T02:37:59;12.10;99.90
48019;DHT22;33786;48.690;9.562;2022-08-21T02:40:27;12.10;99.90
48019;DHT22;33786;48.690;9.562;2022-08-21T02:42:54;12.20;99.90
48019;DHT22;33786;48.690;9.562;2022-08-21T02:45:21;12.20;99.90
48019;DHT22;33786;48.690;9.562;2022-08-21T02:47:51;12.20;99.90
48019;DHT22;33786;48.690;9.562;2022-08-21T02:50:23;12.20;99.90
48019;DHT22;33786;48.690;9.562;2022-08-21T02:52:52;12.20;99.90
48019;DHT22;33786;48.690;9.562;2022-08-21T02:55:24;12.20;99.90
48019;DHT22;33786;48.690;9.562;2022-08-21T02:57:53;12.10;99.90
48019;DHT22;33786;48.690;9.562;2022-08-21T03:00:20;12.10;99.90
48019;DHT22;33786;48.690;9.562;2022-08-21T03:02:47;12.20;99.90
48019;DHT22;33786;48.690;9.562;2022-08-21T03:05:15;12.20;99.90
48019;DHT22;33786;48.690;9.562;2022-08-21T03:07:42;12.20;99.90
48019;DHT22;33786;48.690;9.562;2022-08-21T03:10:09;12.30;99.90
48019;DHT22;33786;48.690;9.562;2022-08-21T03:12:36;12.30;99.90
48019;DHT22;33786;48.690;9.562;2022-08-21T03:15:07;12.30;99.90
48019;DHT22;33786;48.690;9.562;2022-08-21T03:17:35;12.30;99.90
48019;DHT22;33786;48.690;9.562;2022-08-21T03:20:02;12.30;99.90
48019;DHT22;33786;48.690;9.562;2022-08-21T03:22:29;12.30;99.90
48019;DHT22;33786;48.690;9.562;2022-08-21T03:24:56;12.20;99.90
48019;DHT22;33786;48.690;9.562;2022-08-21T03:27:23;12.30;99.90
48019;DHT22;33786;48.690;9.562;2022-08-21T03:29:50;12.30;99.90
48019;DHT22;33786;48.690;9.562;2022-08-21T03:32:17;12.20;99.90
48019;DHT22;33786;48.690;9.562;2022-08-21T03:34:44;12.30;99.90
48019;DHT22;33786;48.690;9.562;2022-08-21T03:37:11;12.20;99.90
48019;DHT22;33786;48.690;9.562;2022-08-21T03:39:38;12.20;99.90
48019;DHT22;33786;48.690;9.562;2022-08-21T03:42:05;12.30;99.90
48019;DHT22;33786;48.690;9.562;2022-08-21T03:44:32;12.40;99.90
48019;DHT22;33786;48.690;9.562;2022-08-21T03:46:59;12.50;99.90
48019;DHT22;33786;48.690;9.562;2022-08-21T03:49:27;12.60;99.90
48019;DHT22;33786;48.690;9.562;2022-08-21T03:51:53;12.70;99.90
48019;DHT22;33786;48.690;9.562;2022-08-21T03:54:25;13.00;99.90
48019;DHT22;33786;48.690;9.562;2022-08-21T03:56:54;13.00;99.90
48019;DHT22;33786;48.690;9.562;2022-08-21T03:59:21;13.00;99.90
48019;DHT22;33786;48.690;9.562;2022-08-21T04:01:54;13.10;99.90
48019;DHT22;33786;48.690;9.562;2022-08-21T04:04:21;13.10;99.90
48019;DHT22;33786;48.690;9.562;2022-08-21T04:06:48;13.10;99.90
48019;DHT22;33786;48.690;9.562;2022-08-21T04:09:16;12.90;99.90
48019;DHT22;33786;48.690;9.562;2022-08-21T04:11:44;13.00;99.90
48019;DHT22;33786;48.690;9.562;2022-08-21T04:14:12;13.00;99.90
48019;DHT22;33786;48.690;9.562;2022-08-21T04:16:40;12.90;99.90
48019;DHT22;33786;48.690;9.562;2022-08-21T04:19:07;12.80;99.90
48019;DHT22;33786;48.690;9.562;2022-08-21T04:21:35;12.90;99.90
48019;DHT22;33786;48.690;9.562;2022-08-21T04:24:03;13.00;99.90
48019;DHT22;33786;48.690;9.562;2022-08-21T04:26:30;13.10;99.90
48019;DHT22;33786;48.690;9.562;2022-08-21T04:28:57;13.20;99.90
48019;DHT22;33786;48.690;9.562;2022-08-21T04:31:24;13.20;99.90
48019;DHT22;33786;48.690;9.562;2022-08-21T04:33:51;13.20;99.90
48019;DHT22;33786;48.690;9.562;2022-08-21T04:36:17;13.10;99.90
48019;DHT22;33786;48.690;9.562;2022-08-21T04:38:49;13.00;99.90
48019;DHT22;33786;48.690;9.562;2022-08-21T04:41:16;12.90;99.90
48019;DHT22;33786;48.690;9.562;2022-08-21T04:43:53;13.00;99.90
48019;DHT22;33786;48.690;9.562;2022-08-21T04:46:21;13.00;99.90
48019;DHT22;33786;48.690;9.562;2022-08-21T04:48:48;13.10;99.90
48019;DHT22;33786;48.690;9.562;2022-08-21T04:51:16;13.20;99.90
48019;DHT22;33786;48.690;9.562;2022-08-21T04:53:45;13.20;99.90
48019;DHT22;33786;48.690;9.562;2022-08-21T04:56:15;13.10;99.90
48019;DHT22;33786;48.690;9.562;2022-08-21T04:58:45;13.30;99.90
48019;DHT22;33786;48.690;9.562;2022-08-21T05:01:17;13.40;99.90
48019;DHT22;33786;48.690;9.562;2022-08-21T05:03:46;13.60;99.90
48019;DHT22;33786;48.690;9.562;2022-08-21T05:06:13;13.60;99.90
48019;DHT22;33786;48.690;9.562;2022-08-21T05:08:41;13.60;99.90
48019;DHT22;33786;48.690;9.562;2022-08-21T05:11:10;13.70;99.90
48019;DHT22;33786;48.690;9.562;2022-08-21T05:13:37;13.70;99.90
48019;DHT22;33786;48.690;9.562;2022-08-21T05:16:03;13.90;99.90
48019;DHT22;33786;48.690;9.562;2022-08-21T05:18:30;14.00;99.90
48019;DHT22;33786;48.690;9.562;2022-08-21T05:20:57;14.00;99.90
48019;DHT22;33786;48.690;9.562;2022-08-21T05:23:24;14.10;99.90
48019;DHT22;33786;48.690;9.562;2022-08-21T05:25:52;14.30;99.90
48019;DHT22;33786;48.690;9.562;2022-08-21T05:28:19;14.40;99.90
48019;DHT22;33786;48.690;9.562;2022-08-21T05:30:45;14.70;99.90
48019;DHT22;33786;48.690;9.562;2022-08-21T05:33:12;14.90;99.90
48019;DHT22;33786;48.690;9.562;2022-08-21T05:35:39;15.10;99.90
48019;DHT22;33786;48.690;9.562;2022-08-21T05:38:06;15.50;99.90
48019;DHT22;33786;48.690;9.562;2022-08-21T05:40:43;15.80;99.90
48019;DHT22;33786;48.690;9.562;2022-08-21T05:43:10;16.60;99.90
48019;DHT22;33786;48.690;9.562;2022-08-21T05:45:37;17.30;99.90
48019;DHT22;33786;48.690;9.562;2022-08-21T05:48:23;18.10;99.90
48019;DHT22;33786;48.690;9.562;2022-08-21T05:50:50;18.70;99.90
48019;DHT22;33786;48.690;9.562;2022-08-21T05:53:18;19.50;99.90
48019;DHT22;33786;48.690;9.562;2022-08-21T05:55:45;20.20;99.90
48019;DHT22;33786;48.690;9.562;2022-08-21T05:58:16;20.90;99.90
48019;DHT22;33786;48.690;9.562;2022-08-21T06:00:43;21.80;99.10
48019;DHT22;33786;48.690;9.562;2022-08-21T06:03:33;22.30;97.90
48019;DHT22;33786;48.690;9.562;2022-08-21T06:05:57;23.40;96.00
48019;DHT22;33786;48.690;9.562;2022-08-21T06:08:25;24.60;93.20
48019;DHT22;33786;48.690;9.562;2022-08-21T06:10:52;26.30;90.70
48019;DHT22;33786;48.690;9.562;2022-08-21T06:13:19;28.20;85.20
48019;DHT22;33786;48.690;9.562;2022-08-21T06:15:46;29.30;79.20
48019;DHT22;33786;48.690;9.562;2022-08-21T06:18:12;29.60;76.40
48019;DHT22;33786;48.690;9.562;2022-08-21T06:20:39;29.10;76.20
48019;DHT22;33786;48.690;9.562;2022-08-21T06:23:06;28.80;75.60
48019;DHT22;33786;48.690;9.562;2022-08-21T06:25:33;30.10;73.10
48019;DHT22;33786;48.690;9.562;2022-08-21T06:28:07;30.70;70.80
48019;DHT22;33786;48.690;9.562;2022-08-21T06:30:35;30.80;70.00
48019;DHT22;33786;48.690;9.562;2022-08-21T06:33:03;30.60;71.00
48019;DHT22;33786;48.690;9.562;2022-08-21T06:35:30;30.50;69.60
48019;DHT22;33786;48.690;9.562;2022-08-21T06:37:57;30.90;68.50
48019;DHT22;33786;48.690;9.562;2022-08-21T06:40:24;31.50;67.40
48019;DHT22;33786;48.690;9.562;2022-08-21T06:42:51;31.30;67.50
48019;DHT22;33786;48.690;9.562;2022-08-21T06:45:17;30.90;67.50
48019;DHT22;33786;48.690;9.562;2022-08-21T06:47:44;31.00;68.10
48019;DHT22;33786;48.690;9.562;2022-08-21T06:50:11;31.40;67.50
48019;DHT22;33786;48.690;9.562;2022-08-21T06:52:38;31.70;66.30
48019;DHT22;33786;48.690;9.562;2022-08-21T06:55:06;31.70;66.20
48019;DHT22;33786;48.690;9.562;2022-08-21T06:57:33;31.40;67.10
48019;DHT22;33786;48.690;9.562;2022-08-21T07:00:00;31.80;66.90
48019;DHT22;33786;48.690;9.562;2022-08-21T07:02:27;33.30;64.10
48019;DHT22;33786;48.690;9.562;2022-08-21T07:04:53;33.40;63.70
48019;DHT22;33786;48.690;9.562;2022-08-21T07:07:20;34.10;62.80
48019;DHT22;33786;48.690;9.562;2022-08-21T07:09:47;34.20;62.20
48019;DHT22;33786;48.690;9.562;2022-08-21T07:12:13;34.20;61.60
48019;DHT22;33786;48.690;9.562;2022-08-21T07:14:40;33.80;62.20
48019;DHT22;33786;48.690;9.562;2022-08-21T07:17:07;33.10;63.10
48019;DHT22;33786;48.690;9.562;2022-08-21T07:19:37;33.60;61.90
48019;DHT22;33786;48.690;9.562;2022-08-21T07:22:04;33.40;62.10
48019;DHT22;33786;48.690;9.562;2022-08-21T07:24:30;33.20;62.40
48019;DHT22;33786;48.690;9.562;2022-08-21T07:26:57;33.80;61.50
48019;DHT22;33786;48.690;9.562;2022-08-21T07:29:24;35.10;60.40
48019;DHT22;33786;48.690;9.562;2022-08-21T07:31:50;36.00;59.60
48019;DHT22;33786;48.690;9.562;2022-08-21T07:34:17;35.70;57.90
48019;DHT22;33786;48.690;9.562;2022-08-21T07:36:44;35.70;57.00
48019;DHT22;33786;48.690;9.562;2022-08-21T07:39:11;35.30;58.80
48019;DHT22;33786;48.690;9.562;2022-08-21T07:41:38;34.40;58.40
48019;DHT22;33786;48.690;9.562;2022-08-21T07:44:04;34.80;58.10
48019;DHT22;33786;48.690;9.562;2022-08-21T07:46:32;34.80;58.40
48019;DHT22;33786;48.690;9.562;2022-08-21T07:48:58;34.60;58.40
48019;DHT22;33786;48.690;9.562;2022-08-21T07:51:26;35.00;57.20
48019;DHT22;33786;48.690;9.562;2022-08-21T07:53:54;35.60;57.50
48019;DHT22;33786;48.690;9.562;2022-08-21T07:56:21;35.70;56.40
48019;DHT22;33786;48.690;9.562;2022-08-21T07:58:51;36.30;55.20
48019;DHT22;33786;48.690;9.562;2022-08-21T08:01:18;36.20;56.30
48019;DHT22;33786;48.690;9.562;2022-08-21T08:03:45;36.10;56.40
48019;DHT22;33786;48.690;9.562;2022-08-21T08:06:12;36.20;54.80
48019;DHT22;33786;48.690;9.562;2022-08-21T08:08:43;36.10;55.60
48019;DHT22;33786;48.690;9.562;2022-08-21T08:11:10;35.90;55.30
48019;DHT22;33786;48.690;9.562;2022-08-21T08:13:38;35.50;54.90
48019;DHT22;33786;48.690;9.562;2022-08-21T08:16:05;35.90;56.00
48019;DHT22;33786;48.690;9.562;2022-08-21T08:18:32;36.10;53.70
48019;DHT22;33786;48.690;9.562;2022-08-21T08:20:58;35.60;54.50
48019;DHT22;33786;48.690;9.562;2022-08-21T08:23:25;35.20;53.80
48019;DHT22;33786;48.690;9.562;2022-08-21T08:25:53;34.40;55.70
48019;DHT22;33786;48.690;9.562;2022-08-21T08:28:20;34.20;56.40
48019;DHT22;33786;48.690;9.562;2022-08-21T08:30:48;34.60;53.50
48019;DHT22;33786;48.690;9.562;2022-08-21T08:33:16;34.10;54.50
48019;DHT22;33786;48.690;9.562;2022-08-21T08:35:44;33.30;55.60
48019;DHT22;33786;48.690;9.562;2022-08-21T08:38:12;32.90;59.10
48019;DHT22;33786;48.690;9.562;2022-08-21T08:40:43;33.00;57.30
48019;DHT22;33786;48.690;9.562;2022-08-21T08:43:12;32.60;58.00
48019;DHT22;33786;48.690;9.562;2022-08-21T08:45:42;33.10;58.50
48019;DHT22;33786;48.690;9.562;2022-08-21T08:48:12;33.40;60.20
48019;DHT22;33786;48.690;9.562;2022-08-21T08:50:57;33.40;57.40
48019;DHT22;33786;48.690;9.562;2022-08-21T08:53:28;33.60;58.60
48019;DHT22;33786;48.690;9.562;2022-08-21T08:55:56;33.00;56.30
48019;DHT22;33786;48.690;9.562;2022-08-21T08:58:28;33.10;58.50
48019;DHT22;33786;48.690;9.562;2022-08-21T09:00:59;33.00;59.70
48019;DHT22;33786;48.690;9.562;2022-08-21T09:03:26;32.90;58.70
48019;DHT22;33786;48.690;9.562;2022-08-21T09:13:32;34.80;57.20
48019;DHT22;33786;48.690;9.562;2022-08-21T09:18:51;34.50;55.90
48019;DHT22;33786;48.690;9.562;2022-08-21T09:26:27;34.50;56.00
48019;DHT22;33786;48.690;9.562;2022-08-21T09:28:56;34.90;53.70
48019;DHT22;33786;48.690;9.562;2022-08-21T09:33:58;35.00;55.90
48019;DHT22;33786;48.690;9.562;2022-08-21T09:36:31;34.90;54.60
48019;DHT22;33786;48.690;9.562;2022-08-21T09:38:59;34.70;55.50
48019;DHT22;33786;48.690;9.562;2022-08-21T09:41:29;34.80;53.80
48019;DHT22;33786;48.690;9.562;2022-08-21T09:43:57;34.90;52.20
48019;DHT22;33786;48.690;9.562;2022-08-21T09:46:25;34.50;52.60
48019;DHT22;33786;48.690;9.562;2022-08-21T09:48:53;34.60;50.90
48019;DHT22;33786;48.690;9.562;2022-08-21T09:51:21;34.20;51.70
48019;DHT22;33786;48.690;9.562;2022-08-21T09:54:09;33.30;52.80
48019;DHT22;33786;48.690;9.562;2022-08-21T09:59:29;32.20;54.50
48019;DHT22;33786;48.690;9.562;2022-08-21T10:02:15;32.10;54.20
48019;DHT22;33786;48.690;9.562;2022-08-21T10:04:53;32.60;52.70
48019;DHT22;33786;48.690;9.562;2022-08-21T10:07:21;32.50;54.50
48019;DHT22;33786;48.690;9.562;2022-08-21T10:10:02;32.20;56.20
48019;DHT22;33786;48.690;9.562;2022-08-21T10:12:32;31.00;55.50
48019;DHT22;33786;48.690;9.562;2022-08-21T10:17:37;30.90;53.70
48019;DHT22;33786;48.690;9.562;2022-08-21T10:23:20;30.10;54.40
48019;DHT22;33786;48.690;9.562;2022-08-21T10:30:36;28.90;57.20
48019;DHT22;33786;48.690;9.562;2022-08-21T10:35:51;28.40;58.20
48019;DHT22;33786;48.690;9.562;2022-08-21T10:41:09;28.80;59.00
48019;DHT22;33786;48.690;9.562;2022-08-21T10:43:50;28.60;60.60
48019;DHT22;33786;48.690;9.562;2022-08-21T10:53:44;29.30;58.70
48019;DHT22;33786;48.690;9.562;2022-08-21T10:56:17;29.10;58.30
48019;DHT22;33786;48.690;9.562;2022-08-21T10:58:49;28.80;55.60
48019;DHT22;33786;48.690;9.562;2022-08-21T11:01:23;28.30;57.40
48019;DHT22;33786;48.690;9.562;2022-08-21T11:03:52;28.40;59.10
48019;DHT22;33786;48.690;9.562;2022-08-21T11:06:25;28.40;57.20
48019;DHT22;33786;48.690;9.562;2022-08-21T11:08:55;28.70;58.70
48019;DHT22;33786;48.690;9.562;2022-08-21T11:11:25;28.40;58.20
48019;DHT22;33786;48.690;9.562;2022-08-21T11:19:24;28.50;61.10
48019;DHT22;33786;48.690;9.562;2022-08-21T11:21:58;28.30;58.10
48019;DHT22;33786;48.690;9.562;2022-08-21T11:29:43;28.00;58.60
48019;DHT22;33786;48.690;9.562;2022-08-21T11:42:15;27.60;61.30
48019;DHT22;33786;48.690;9.562;2022-08-21T11:44:53;27.90;61.20
48019;DHT22;33786;48.690;9.562;2022-08-21T11:49:53;27.90;59.60
48019;DHT22;33786;48.690;9.562;2022-08-21T11:52:25;27.70;60.30
48019;DHT22;33786;48.690;9.562;2022-08-21T11:54:58;27.50;60.80
48019;DHT22;33786;48.690;9.562;2022-08-21T12:00:00;28.10;61.00
48019;DHT22;33786;48.690;9.562;2022-08-21T12:02:31;28.40;60.60
48019;DHT22;33786;48.690;9.562;2022-08-21T12:05:04;28.40;59.80
48019;DHT22;33786;48.690;9.562;2022-08-21T12:10:06;28.30;62.20
48019;DHT22;33786;48.690;9.562;2022-08-21T12:12:34;28.50;59.10
48019;DHT22;33786;48.690;9.562;2022-08-21T12:17:36;28.50;58.60
48019;DHT22;33786;48.690;9.562;2022-08-21T12:20:57;28.50;61.60
48019;DHT22;33786;48.690;9.562;2022-08-21T12:22:55;29.00;62.30
48019;DHT22;33786;48.690;9.562;2022-08-21T12:25:36;29.20;61.10
48019;DHT22;33786;48.690;9.562;2022-08-21T12:28:11;29.50;61.90
48019;DHT22;33786;48.690;9.562;2022-08-21T12:30:40;29.50;61.30
48019;DHT22;33786;48.690;9.562;2022-08-21T12:33:27;29.50;62.10
48019;DHT22;33786;48.690;9.562;2022-08-21T12:36:03;29.50;61.20
48019;DHT22;33786;48.690;9.562;2022-08-21T12:38:39;29.30;58.40
48019;DHT22;33786;48.690;9.562;2022-08-21T12:41:55;29.60;60.30
48019;DHT22;33786;48.690;9.562;2022-08-21T12:44:00;29.60;59.40
48019;DHT22;33786;48.690;9.562;2022-08-21T12:46:37;29.70;58.70
48019;DHT22;33786;48.690;9.562;2022-08-21T12:54:22;29.00;58.80
48019;DHT22;33786;48.690;9.562;2022-08-21T12:56:55;29.40;59.70
48019;DHT22;33786;48.690;9.562;2022-08-21T12:59:22;29.40;60.70
48019;DHT22;33786;48.690;9.562;2022-08-21T13:01:49;29.00;57.20
48019;DHT22;33786;48.690;9.562;2022-08-21T13:04:17;29.10;59.50
48019;DHT22;33786;48.690;9.562;2022-08-21T13:06:47;29.20;57.50
48019;DHT22;33786;48.690;9.562;2022-08-21T13:09:15;29.20;57.00
48019;DHT22;33786;48.690;9.562;2022-08-21T13:11:43;29.20;58.40
48019;DHT22;33786;48.690;9.562;2022-08-21T13:14:33;29.20;57.20
48019;DHT22;33786;48.690;9.562;2022-08-21T13:17:10;29.20;58.30
48019;DHT22;33786;48.690;9.562;2022-08-21T13:19:37;29.30;58.10
48019;DHT22;33786;48.690;9.562;2022-08-21T13:22:05;29.40;57.20
48019;DHT22;33786;48.690;9.562;2022-08-21T13:24:58;29.60;56.70
48019;DHT22;33786;48.690;9.562;2022-08-21T13:27:28;29.60;56.00
48019;DHT22;33786;48.690;9.562;2022-08-21T13:30:39;29.60;55.10
48019;DHT22;33786;48.690;9.562;2022-08-21T13:32:48;29.20;55.90
48019;DHT22;33786;48.690;9.562;2022-08-21T13:37:41;29.20;55.70
48019;DHT22;33786;48.690;9.562;2022-08-21T13:40:10;28.90;57.40
48019;DHT22;33786;48.690;9.562;2022-08-21T13:42:38;28.80;55.40
48019;DHT22;33786;48.690;9.562;2022-08-21T13:45:10;28.60;55.10
48019;DHT22;33786;48.690;9.562;2022-08-21T13:47:37;28.30;54.00
48019;DHT22;33786;48.690;9.562;2022-08-21T13:50:04;27.60;55.40
48019;DHT22;33786;48.690;9.562;2022-08-21T13:52:31;27.50;57.20
48019;DHT22;33786;48.690;9.562;2022-08-21T13:55:00;27.60;56.10
48019;DHT22;33786;48.690;9.562;2022-08-21T13:57:32;27.90;56.00
48019;DHT22;33786;48.690;9.562;2022-08-21T14:03:06;28.20;57.60
48019;DHT22;33786;48.690;9.562;2022-08-21T14:05:34;27.90;54.80
48019;DHT22;33786;48.690;9.562;2022-08-21T14:08:03;27.90;56.30
48019;DHT22;33786;48.690;9.562;2022-08-21T14:10:31;27.60;55.40
48019;DHT22;33786;48.690;9.562;2022-08-21T14:12:58;27.60;56.00
48019;DHT22;33786;48.690;9.562;2022-08-21T14:15:28;27.70;56.30
48019;DHT22;33786;48.690;9.562;2022-08-21T14:18:06;27.70;55.00
48019;DHT22;33786;48.690;9.562;2022-08-21T14:20:34;27.40;55.30
48019;DHT22;33786;48.690;9.562;2022-08-21T14:23:01;27.60;56.70
48019;DHT22;33786;48.690;9.562;2022-08-21T14:25:29;27.90;55.80
48019;DHT22;33786;48.690;9.562;2022-08-21T14:30:43;28.20;55.00
48019;DHT22;33786;48.690;9.562;2022-08-21T14:33:15;28.20;55.50
48019;DHT22;33786;48.690;9.562;2022-08-21T14:35:44;28.20;55.30
48019;DHT22;33786;48.690;9.562;2022-08-21T14:38:12;28.10;54.00
48019;DHT22;33786;48.690;9.562;2022-08-21T14:40:39;27.80;55.10
48019;DHT22;33786;48.690;9.562;2022-08-21T14:43:06;27.90;54.90
48019;DHT22;33786;48.690;9.562;2022-08-21T14:45:34;28.00;55.30
48019;DHT22;33786;48.690;9.562;2022-08-21T14:48:02;28.20;54.90
48019;DHT22;33786;48.690;9.562;2022-08-21T14:50:30;28.10;54.40
48019;DHT22;33786;48.690;9.562;2022-08-21T14:52:57;28.00;54.80
48019;DHT22;33786;48.690;9.562;2022-08-21T14:55:24;28.10;55.30
48019;DHT22;33786;48.690;9.562;2022-08-21T14:57:51;28.10;54.10
48019;DHT22;33786;48.690;9.562;2022-08-21T15:00:20;28.00;53.90
48019;DHT22;33786;48.690;9.562;2022-08-21T15:02:52;27.80;53.60
48019;DHT22;33786;48.690;9.562;2022-08-21T15:05:19;27.70;52.70
48019;DHT22;33786;48.690;9.562;2022-08-21T15:07:59;27.60;52.60
48019;DHT22;33786;48.690;9.562;2022-08-21T15:10:25;27.30;54.20
48019;DHT22;33786;48.690;9.562;2022-08-21T15:12:52;27.30;54.50
48019;DHT22;33786;48.690;9.562;2022-08-21T15:15:19;27.40;54.50
48019;DHT22;33786;48.690;9.562;2022-08-21T15:17:46;27.50;54.40
48019;DHT22;33786;48.690;9.562;2022-08-21T15:20:14;27.40;54.10
48019;DHT22;33786;48.690;9.562;2022-08-21T15:22:41;27.30;53.40
48019;DHT22;33786;48.690;9.562;2022-08-21T15:25:13;27.30;53.10
48019;DHT22;33786;48.690;9.562;2022-08-21T15:27:40;27.50;53.80
48019;DHT22;33786;48.690;9.562;2022-08-21T15:30:07;27.50;53.40
48019;DHT22;33786;48.690;9.562;2022-08-21T15:32:34;27.60;54.40
48019;DHT22;33786;48.690;9.562;2022-08-21T15:35:00;27.70;54.10
48019;DHT22;33786;48.690;9.562;2022-08-21T15:37:28;27.80;55.00
48019;DHT22;33786;48.690;9.562;2022-08-21T15:39:55;27.80;53.50
48019;DHT22;33786;48.690;9.562;2022-08-21T15:42:22;27.90;52.10
48019;DHT22;33786;48.690;9.562;2022-08-21T15:44:50;28.00;53.00
48019;DHT22;33786;48.690;9.562;2022-08-21T15:47:21;27.80;53.10
48019;DHT22;33786;48.690;9.562;2022-08-21T15:49:48;27.80;51.70
48019;DHT22;33786;48.690;9.562;2022-08-21T15:52:16;27.80;51.60
48019;DHT22;33786;48.690;9.562;2022-08-21T15:54:43;27.60;52.20
48019;DHT22;33786;48.690;9.562;2022-08-21T15:57:10;27.50;53.10
48019;DHT22;33786;48.690;9.562;2022-08-21T15:59:41;27.30;52.10
48019;DHT22;33786;48.690;9.562;2022-08-21T16:02:19;27.30;51.70
48019;DHT22;33786;48.690;9.562;2022-08-21T16:04:46;27.30;49.20
48019;DHT22;33786;48.690;9.562;2022-08-21T16:07:13;27.20;49.30
48019;DHT22;33786;48.690;9.562;2022-08-21T16:09:40;27.20;51.00
48019;DHT22;33786;48.690;9.562;2022-08-21T16:12:07;27.30;50.80
48019;DHT22;33786;48.690;9.562;2022-08-21T16:14:34;27.30;51.60
48019;DHT22;33786;48.690;9.562;2022-08-21T16:17:06;27.40;53.20
48019;DHT22;33786;48.690;9.562;2022-08-21T16:19:33;27.30;53.00
48019;DHT22;33786;48.690;9.562;2022-08-21T16:21:59;27.40;53.20
48019;DHT22;33786;48.690;9.562;2022-08-21T16:24:26;27.30;53.90
48019;DHT22;33786;48.690;9.562;2022-08-21T16:26:53;27.30;52.70
48019;DHT22;33786;48.690;9.562;2022-08-21T16:29:24;27.30;53.80
48019;DHT22;33786;48.690;9.562;2022-08-21T16:31:52;27.20;54.90
48019;DHT22;33786;48.690;9.562;2022-08-21T16:34:19;27.10;53.60
48019;DHT22;33786;48.690;9.562;2022-08-21T16:36:46;27.10;54.20
48019;DHT22;33786;48.690;9.562;2022-08-21T16:39:13;27.00;53.70
48019;DHT22;33786;48.690;9.562;2022-08-21T16:41:40;27.00;54.40
48019;DHT22;33786;48.690;9.562;2022-08-21T16:44:07;26.70;55.10
48019;DHT22;33786;48.690;9.562;2022-08-21T16:46:37;26.70;54.90
48019;DHT22;33786;48.690;9.562;2022-08-21T16:49:05;26.70;55.20
48019;DHT22;33786;48.690;9.562;2022-08-21T16:51:33;26.60;54.20
48019;DHT22;33786;48.690;9.562;2022-08-21T16:54:00;26.60;55.40
48019;DHT22;33786;48.690;9.562;2022-08-21T16:56:26;26.60;56.10
48019;DHT22;33786;48.690;9.562;2022-08-21T16:58:53;26.50;55.80
48019;DHT22;33786;48.690;9.562;2022-08-21T17:01:21;26.40;56.60
48019;DHT22;33786;48.690;9.562;2022-08-21T17:03:50;26.30;55.30
48019;DHT22;33786;48.690;9.562;2022-08-21T17:06:17;26.30;57.20
48019;DHT22;33786;48.690;9.562;2022-08-21T17:08:44;26.20;58.10